Time;durP1;ratioP1;P1;durP2;ratioP2;P2;SDS_P1;SDS_P2;PMS_P1;PMS_P2;Temp;Humidity;BMP_temperature;BMP_pressure;BME280_temperature;BME280_humidity;BME280_pressure;Samples;Min_cycle;Max_cycle;Signal;HPM_P1;HPM_P2
2021/06/16 00:01:07;;;;;;;0.50;0.20;;;19.90;95.80;;;;;;5016199;28;20276;-89
2021/06/16 00:03:32;;;;;;;0.45;0.25;;;20.10;96.10;;;;;;5021302;28;20057;-88
2021/06/16 00:05:58;;;;;;;0.10;0.10;;;20.10;95.70;;;;;;5017508;28;20483;-89
2021/06/16 00:08:24;;;;;;;0.30;0.30;;;20.00;96.10;;;;;;5036721;28;20026;-89
2021/06/16 00:10:50;;;;;;;0.10;0.10;;;20.10;95.90;;;;;;5018709;28;20022;-89
2021/06/16 00:13:17;;;;;;;0.10;0.10;;;19.80;96.70;;;;;;5030069;28;20280;-88
2021/06/16 00:15:44;;;;;;;0.30;0.30;;;19.80;96.80;;;;;;5025866;28;20061;-89
2021/06/16 00:18:10;;;;;;;0.35;0.30;;;19.80;97.00;;;;;;5021616;28;20025;-89
2021/06/16 00:20:37;;;;;;;0.28;0.20;;;19.70;97.40;;;;;;5026717;28;20033;-89
2021/06/16 00:23:03;;;;;;;;;;;19.80;97.10;;;;;;5029503;28;20506;-88
2021/06/16 00:25:29;;;;;;;0.38;0.38;;;19.90;97.20;;;;;;5015872;28;19914;-88
2021/06/16 00:27:55;;;;;;;0.15;0.15;;;19.70;97.80;;;;;;5039880;28;20513;-89
2021/06/16 00:30:22;;;;;;;0.20;0.15;;;19.90;97.60;;;;;;5041077;28;20033;-89
2021/06/16 00:32:48;;;;;;;0.00;0.00;;;19.70;97.90;;;;;;5024044;28;20029;-88
2021/06/16 00:35:20;;;;;;;0.30;0.30;;;19.70;98.10;;;;;;5018806;28;20033;-89
2021/06/16 00:37:50;;;;;;;0.10;0.10;;;19.60;98.70;;;;;;5020430;28;20474;-89
2021/06/16 00:40:19;;;;;;;0.45;0.40;;;19.60;98.80;;;;;;5029640;28;20044;-88
2021/06/16 00:42:46;;;;;;;0.17;0.17;;;19.70;98.80;;;;;;5027453;28;20042;-89
2021/06/16 00:45:12;;;;;;;0.30;0.30;;;19.70;98.60;;;;;;5029719;28;20033;-89
2021/06/16 00:47:39;;;;;;;0.10;0.10;;;19.60;99.20;;;;;;5022976;28;20032;-89
2021/06/16 00:50:06;;;;;;;;;;;19.50;99.70;;;;;;5022369;28;20522;-89
2021/06/16 00:52:31;;;;;;;0.50;0.30;;;19.40;99.90;;;;;;5030748;28;20339;-89
2021/06/16 00:54:57;;;;;;;0.83;0.77;;;19.50;99.90;;;;;;5030899;28;20108;-89
2021/06/16 00:57:24;;;;;;;0.20;0.20;;;19.40;99.90;;;;;;5027518;28;20632;-88
2021/06/16 01:00:07;;;;;;;0.10;0.10;;;19.50;99.90;;;;;;5028766;28;20034;-89
2021/06/16 01:02:54;;;;;;;0.25;0.25;;;19.40;99.90;;;;;;5026463;28;20194;-88
2021/06/16 01:05:21;;;;;;;0.70;0.38;;;19.40;99.90;;;;;;5020216;28;20049;-88
2021/06/16 01:07:53;;;;;;;0.25;0.25;;;19.30;99.90;;;;;;5017960;28;20033;-88
2021/06/16 01:10:23;;;;;;;0.00;0.00;;;19.30;99.90;;;;;;5020176;28;20032;-88
2021/06/16 01:13:07;;;;;;;0.08;0.08;;;19.20;99.90;;;;;;5026229;28;20021;-89
2021/06/16 01:15:45;;;;;;;0.20;0.20;;;19.30;99.90;;;;;;5028723;28;20029;-88
2021/06/16 01:18:17;;;;;;;0.10;0.10;;;19.30;99.90;;;;;;5030365;28;20832;-88
2021/06/16 01:20:50;;;;;;;0.80;0.45;;;19.20;99.90;;;;;;5027919;28;20041;-89
2021/06/16 01:23:44;;;;;;;0.30;0.30;;;19.20;99.90;;;;;;5035021;28;20033;-88
2021/06/16 01:26:25;;;;;;;0.20;0.20;;;19.20;99.90;;;;;;5013752;28;20105;-89
2021/06/16 01:28:58;;;;;;;0.25;0.25;;;19.10;99.90;;;;;;5017706;28;20112;-90
2021/06/16 01:31:26;;;;;;;0.30;0.30;;;19.00;99.90;;;;;;5020602;28;20041;-89
2021/06/16 01:33:52;;;;;;;0.35;0.35;;;19.00;99.90;;;;;;5016097;28;20033;-88
2021/06/16 01:36:20;;;;;;;0.30;0.30;;;18.90;99.90;;;;;;5022325;28;20509;-89
2021/06/16 01:38:46;;;;;;;0.15;0.15;;;19.00;99.90;;;;;;5042634;28;20041;-88
2021/06/16 01:41:15;;;;;;;0.30;0.20;;;19.10;99.90;;;;;;5027462;28;20030;-90
2021/06/16 01:43:41;;;;;;;0.45;0.45;;;19.00;99.90;;;;;;5029049;28;20041;-88
2021/06/16 01:46:09;;;;;;;1.83;0.77;;;19.00;99.90;;;;;;5011487;28;20056;-88
2021/06/16 01:48:37;;;;;;;0.00;0.00;;;18.90;99.90;;;;;;5023476;28;20032;-88
2021/06/16 01:51:06;;;;;;;0.10;0.10;;;18.80;99.90;;;;;;5022354;28;20886;-89
2021/06/16 01:53:32;;;;;;;1.08;0.68;;;18.70;99.90;;;;;;5027912;28;20034;-88
2021/06/16 01:55:58;;;;;;;;;;;18.70;99.90;;;;;;5025275;28;21044;-89
2021/06/16 01:58:24;;;;;;;0.10;0.10;;;18.70;99.90;;;;;;5019601;28;19949;-89
2021/06/16 02:00:53;;;;;;;0.27;0.27;;;18.90;99.90;;;;;;5017256;28;20033;-89
2021/06/16 02:03:19;;;;;;;0.15;0.13;;;19.00;99.90;;;;;;5015065;28;20025;-89
2021/06/16 02:05:45;;;;;;;0.13;0.13;;;18.80;99.90;;;;;;5016763;28;20029;-88
2021/06/16 02:08:15;;;;;;;0.10;0.10;;;18.60;99.90;;;;;;5024683;28;20834;-87
2021/06/16 02:10:50;;;;;;;0.68;0.52;;;18.60;99.90;;;;;;5020000;28;20033;-87
2021/06/16 02:13:30;;;;;;;1.27;1.10;;;18.60;99.90;;;;;;5017540;28;20100;-87
2021/06/16 02:16:01;;;;;;;0.20;0.20;;;18.40;99.90;;;;;;5014623;28;20032;-87
2021/06/16 02:18:31;;;;;;;7.28;0.98;;;18.60;99.90;;;;;;5025235;28;20503;-87
2021/06/16 02:20:57;;;;;;;0.47;0.47;;;18.40;99.90;;;;;;5019927;28;20021;-87
2021/06/16 02:23:24;;;;;;;0.27;0.27;;;18.30;99.90;;;;;;5025247;28;20512;-87
2021/06/16 02:25:50;;;;;;;0.20;0.20;;;18.00;99.90;;;;;;5021309;28;20295;-87
2021/06/16 02:28:16;;;;;;;0.13;0.13;;;17.80;99.90;;;;;;5016221;28;20052;-87
2021/06/16 02:30:42;;;;;;;0.28;0.28;;;17.80;99.90;;;;;;5024812;28;20026;-87
2021/06/16 02:33:08;;;;;;;0.60;0.37;;;17.90;99.90;;;;;;5014330;28;20072;-87
2021/06/16 02:35:33;;;;;;;0.43;0.20;;;17.80;99.90;;;;;;5022703;28;20553;-87
2021/06/16 02:38:11;;;;;;;0.10;0.10;;;17.70;99.90;;;;;;5027266;28;20097;-87
2021/06/16 02:40:40;;;;;;;0.00;0.00;;;17.80;99.90;;;;;;5010992;28;20030;-87
2021/06/16 02:43:07;;;;;;;0.22;0.22;;;17.80;99.90;;;;;;5016572;28;20030;-87
2021/06/16 02:45:35;;;;;;;0.30;0.30;;;18.00;99.90;;;;;;5024808;28;20022;-87
2021/06/16 02:48:03;;;;;;;0.93;0.28;;;17.90;99.90;;;;;;5023815;28;20040;-88
2021/06/16 02:50:30;;;;;;;0.38;0.20;;;18.00;99.90;;;;;;5028213;28;20537;-88
2021/06/16 02:53:01;;;;;;;0.98;0.65;;;17.90;99.90;;;;;;5023651;28;20033;-88
2021/06/16 02:55:27;;;;;;;0.00;0.00;;;17.90;99.90;;;;;;5019384;28;20014;-89
2021/06/16 02:57:55;;;;;;;0.10;0.10;;;18.00;99.90;;;;;;5016369;28;20118;-89
2021/06/16 03:00:23;;;;;;;0.35;0.35;;;18.10;99.90;;;;;;5030054;28;20061;-89
2021/06/16 03:02:50;;;;;;;0.25;0.20;;;17.90;99.90;;;;;;5012953;28;20087;-89
2021/06/16 03:05:27;;;;;;;0.25;0.25;;;18.20;99.90;;;;;;5020688;28;20091;-88
2021/06/16 03:07:56;;;;;;;0.52;0.45;;;18.00;99.90;;;;;;5021889;28;20045;-88
2021/06/16 03:10:23;;;;;;;0.25;0.25;;;17.90;99.90;;;;;;5030764;28;20031;-89
2021/06/16 03:12:51;;;;;;;0.28;0.28;;;17.90;99.90;;;;;;5020495;28;20041;-89
2021/06/16 03:15:18;;;;;;;0.32;0.32;;;17.80;99.90;;;;;;5019021;28;20525;-90
2021/06/16 03:17:45;;;;;;;0.20;0.20;;;17.70;99.90;;;;;;5011116;28;20662;-89
2021/06/16 03:20:13;;;;;;;0.17;0.17;;;17.60;99.90;;;;;;5007559;28;20092;-90
2021/06/16 03:22:40;;;;;;;0.80;0.70;;;17.70;99.90;;;;;;5019339;28;20034;-87
2021/06/16 03:25:07;;;;;;;0.20;0.20;;;17.60;99.90;;;;;;5010061;28;20018;-87
2021/06/16 03:27:34;;;;;;;0.40;0.40;;;17.60;99.90;;;;;;5004132;28;20810;-88
2021/06/16 03:30:01;;;;;;;0.73;0.45;;;17.60;99.90;;;;;;5027821;28;20028;-88
2021/06/16 03:32:27;;;;;;;;;;;17.30;99.90;;;;;;5020352;28;20038;-88
2021/06/16 03:34:53;;;;;;;0.55;0.55;;;17.30;99.90;;;;;;5015910;28;19917;-88
2021/06/16 03:37:20;;;;;;;0.20;0.20;;;17.40;99.90;;;;;;5026639;28;20032;-88
2021/06/16 03:39:51;;;;;;;0.38;0.38;;;17.50;99.90;;;;;;5019991;28;20129;-90
2021/06/16 03:42:18;;;;;;;0.40;0.40;;;17.60;99.90;;;;;;5011411;28;20049;-89
2021/06/16 03:44:46;;;;;;;0.40;0.40;;;17.60;99.90;;;;;;5020360;28;20056;-88
2021/06/16 03:47:14;;;;;;;0.40;0.40;;;17.70;99.90;;;;;;5013546;28;20026;-89
2021/06/16 03:49:42;;;;;;;0.20;0.20;;;17.70;99.90;;;;;;5008553;28;20083;-89
2021/06/16 03:52:09;;;;;;;0.10;0.10;;;17.70;99.90;;;;;;5017847;28;20022;-89
2021/06/16 03:54:36;;;;;;;1.60;0.90;;;17.80;99.90;;;;;;4998060;28;20029;-89
2021/06/16 03:57:03;;;;;;;0.28;0.28;;;17.70;99.90;;;;;;5023584;28;20529;-88
2021/06/16 03:59:29;;;;;;;0.20;0.20;;;17.60;99.90;;;;;;5010312;28;20042;-89
2021/06/16 04:01:55;;;;;;;1.03;0.53;;;17.60;99.90;;;;;;5007002;28;20033;-89
2021/06/16 04:04:22;;;;;;;0.35;0.35;;;17.40;99.90;;;;;;5015967;28;20049;-88
2021/06/16 04:06:48;;;;;;;0.98;0.35;;;17.30;99.90;;;;;;5008012;28;20551;-88
2021/06/16 04:09:15;;;;;;;0.33;0.33;;;17.30;99.90;;;;;;5007869;28;20029;-88
2021/06/16 04:11:42;;;;;;;;;;;17.20;99.90;;;;;;5009003;28;20038;-87
2021/06/16 04:14:08;;;;;;;0.20;0.20;;;17.40;99.90;;;;;;5007844;28;19910;-88
2021/06/16 04:16:34;;;;;;;0.20;0.20;;;17.30;99.90;;;;;;5008407;28;20605;-88
2021/06/16 04:19:00;;;;;;;0.20;0.20;;;17.30;99.90;;;;;;5008216;28;20041;-88
2021/06/16 04:21:26;;;;;;;0.30;0.30;;;17.50;99.90;;;;;;5008324;28;20860;-87
2021/06/16 04:23:53;;;;;;;0.28;0.28;;;17.50;99.90;;;;;;5008259;28;20507;-88
2021/06/16 04:26:23;;;;;;;0.30;0.25;;;17.60;99.90;;;;;;5023370;28;20072;-88
2021/06/16 04:28:49;;;;;;;0.55;0.55;;;17.70;99.90;;;;;;5022518;28;20033;-89
2021/06/16 04:31:15;;;;;;;0.30;0.20;;;17.80;99.90;;;;;;5023074;28;20029;-89
2021/06/16 04:33:41;;;;;;;0.50;0.50;;;17.90;99.90;;;;;;5022813;28;20065;-88
2021/06/16 04:36:07;;;;;;;0.23;0.20;;;18.00;99.90;;;;;;5006398;28;20518;-88
2021/06/16 04:38:34;;;;;;;0.45;0.45;;;18.20;99.90;;;;;;5007767;28;20041;-87
2021/06/16 04:41:00;;;;;;;0.32;0.32;;;18.50;99.90;;;;;;5023349;28;20045;-88
2021/06/16 04:43:27;;;;;;;0.75;0.75;;;18.80;99.90;;;;;;5008368;28;20030;-86
2021/06/16 04:45:53;;;;;;;0.22;0.22;;;19.10;99.90;;;;;;5022596;28;20034;-89
2021/06/16 04:48:18;;;;;;;0.40;0.20;;;19.50;99.90;;;;;;5008450;28;20026;-88
2021/06/16 04:50:45;;;;;;;0.30;0.30;;;19.70;99.90;;;;;;5008245;28;20571;-88
2021/06/16 04:53:11;;;;;;;0.80;0.52;;;19.90;99.90;;;;;;5022411;28;20116;-89
2021/06/16 04:55:37;;;;;;;0.20;0.20;;;20.20;99.90;;;;;;5011875;28;20033;-89
2021/06/16 04:58:04;;;;;;;0.63;0.57;;;20.00;99.90;;;;;;5011383;28;20034;-88
2021/06/16 05:00:30;;;;;;;0.15;0.15;;;20.10;99.90;;;;;;5012597;28;20032;-90
2021/06/16 05:02:59;;;;;;;0.00;0.00;;;20.60;99.90;;;;;;5011996;28;20034;-88
2021/06/16 05:05:25;;;;;;;0.17;0.17;;;20.90;99.90;;;;;;5028666;28;20050;-87
2021/06/16 05:07:51;;;;;;;0.22;0.22;;;21.00;99.90;;;;;;5031861;28;20423;-87
2021/06/16 05:10:16;;;;;;;0.10;0.10;;;21.20;99.90;;;;;;5020737;28;20037;-87
2021/06/16 05:12:43;;;;;;;0.67;0.30;;;21.70;98.30;;;;;;5011890;28;20100;-87
2021/06/16 05:15:10;;;;;;;0.10;0.10;;;22.20;98.30;;;;;;5013027;28;20038;-86
2021/06/16 05:17:38;;;;;;;0.10;0.10;;;22.50;97.10;;;;;;5016032;28;20025;-87
2021/06/16 05:20:07;;;;;;;0.30;0.30;;;22.60;96.40;;;;;;5019483;28;20036;-86
2021/06/16 05:22:34;;;;;;;1.98;0.82;;;23.00;95.10;;;;;;5030638;28;20088;-87
2021/06/16 05:25:02;;;;;;;0.00;0.00;;;23.00;94.10;;;;;;5026011;28;20481;-88
2021/06/16 05:27:28;;;;;;;0.30;0.20;;;23.10;92.10;;;;;;5028894;28;20026;-87
2021/06/16 05:29:54;;;;;;;0.25;0.25;;;23.20;91.90;;;;;;5020107;28;20079;-87
2021/06/16 05:32:20;;;;;;;0.10;0.10;;;23.50;91.10;;;;;;5019302;28;20030;-87
2021/06/16 05:34:51;;;;;;;0.10;0.10;;;23.30;91.00;;;;;;5036623;28;20170;-87
2021/06/16 05:37:17;;;;;;;0.10;0.10;;;23.50;90.90;;;;;;5027132;28;20117;-87
2021/06/16 05:39:45;;;;;;;0.35;0.22;;;23.60;90.80;;;;;;5014663;28;20040;-86
2021/06/16 05:42:12;;;;;;;0.00;0.00;;;24.00;91.20;;;;;;5016979;28;20036;-88
2021/06/16 05:44:37;;;;;;;0.10;0.10;;;23.80;89.50;;;;;;5020376;28;20671;-88
2021/06/16 05:47:04;;;;;;;0.15;0.15;;;24.30;88.40;;;;;;5031410;28;20026;-89
2021/06/16 05:49:30;;;;;;;0.65;0.63;;;24.30;87.40;;;;;;5018720;28;20121;-88
2021/06/16 05:51:56;;;;;;;0.10;0.10;;;24.80;85.70;;;;;;5027837;28;20092;-88
2021/06/16 05:54:22;;;;;;;0.40;0.20;;;25.40;81.50;;;;;;5045342;28;20045;-88
2021/06/16 05:56:48;;;;;;;0.10;0.10;;;25.80;76.50;;;;;;5029159;28;20448;-88
2021/06/16 05:59:14;;;;;;;0.00;0.00;;;26.20;76.20;;;;;;5022393;28;20120;-87
2021/06/16 06:01:40;;;;;;;0.25;0.10;;;26.20;75.20;;;;;;5009171;28;20026;-87
2021/06/16 06:04:06;;;;;;;0.10;0.10;;;26.20;74.80;;;;;;5029853;28;20041;-88
2021/06/16 06:06:36;;;;;;;0.17;0.17;;;26.20;74.40;;;;;;5012874;28;20041;-88
2021/06/16 06:09:04;;;;;;;0.20;0.10;;;26.50;71.60;;;;;;5025519;28;20040;-87
2021/06/16 06:11:30;;;;;;;0.00;0.00;;;26.50;69.90;;;;;;5039272;28;20017;-87
2021/06/16 06:13:56;;;;;;;0.85;0.00;;;26.70;68.90;;;;;;5021698;28;20058;-87
2021/06/16 06:16:22;;;;;;;0.08;0.08;;;27.00;67.00;;;;;;5024264;28;20121;-87
2021/06/16 06:18:48;;;;;;;0.20;0.10;;;27.00;65.80;;;;;;5020856;28;20442;-88
2021/06/16 06:21:14;;;;;;;;;;;26.90;67.10;;;;;;5027026;28;20630;-89
2021/06/16 06:23:40;;;;;;;0.00;0.00;;;27.20;66.60;;;;;;5045291;28;19909;-88
2021/06/16 06:26:06;;;;;;;1.08;0.45;;;27.50;65.50;;;;;;5025612;28;20073;-90
2021/06/16 06:28:38;;;;;;;0.20;0.10;;;27.50;63.70;;;;;;5016723;28;20033;-89
2021/06/16 06:31:05;;;;;;;0.00;0.00;;;28.00;61.70;;;;;;5027980;28;20076;-90
2021/06/16 06:33:32;;;;;;;0.08;0.08;;;28.20;61.30;;;;;;5018126;28;20806;-89
2021/06/16 06:35:58;;;;;;;0.45;0.32;;;28.00;59.80;;;;;;5026842;28;20076;-88
2021/06/16 06:38:24;;;;;;;0.28;0.28;;;29.60;53.90;;;;;;5023095;28;20021;-89
2021/06/16 06:40:50;;;;;;;0.50;0.35;;;29.80;54.10;;;;;;5024520;28;20033;-88
2021/06/16 06:43:16;;;;;;;0.60;0.45;;;29.40;51.30;;;;;;5023405;28;20029;-90
2021/06/16 06:45:44;;;;;;;0.10;0.10;;;29.60;53.20;;;;;;5011074;28;20761;-91
2021/06/16 06:48:10;;;;;;;0.15;0.03;;;29.80;51.90;;;;;;5013810;28;20511;-89
2021/06/16 06:50:35;;;;;;;;;;;29.40;50.70;;;;;;5023470;28;20041;-90
2021/06/16 06:53:01;;;;;;;0.00;0.00;;;29.70;49.40;;;;;;5026476;28;19921;-91
2021/06/16 06:55:29;;;;;;;;;;;30.00;47.20;;;;;;5038952;28;20064;-93
2021/06/16 06:57:55;;;;;;;0.03;0.03;;;30.30;47.00;;;;;;5025439;28;19960;-92
2021/06/16 07:00:21;;;;;;;;;;;30.70;45.90;;;;;;5033952;28;20542;-94
2021/06/16 07:02:47;;;;;;;0.22;0.00;;;30.30;46.00;;;;;;5027389;28;20305;-92
2021/06/16 07:05:14;;;;;;;0.43;0.40;;;31.10;42.00;;;;;;5030496;28;20045;-92
2021/06/16 07:07:41;;;;;;;0.00;0.00;;;31.50;39.10;;;;;;5030891;28;20033;-93
2021/06/16 07:10:08;;;;;;;0.00;0.00;;;31.50;40.10;;;;;;5030700;28;20033;-94
2021/06/16 07:12:34;;;;;;;0.00;0.00;;;32.50;36.90;;;;;;5013629;28;20030;-93
2021/06/16 07:15:00;;;;;;;0.22;0.22;;;32.40;36.70;;;;;;5025094;28;20028;-94
2021/06/16 07:17:26;;;;;;;0.00;0.00;;;32.80;32.30;;;;;;5029936;28;20402;-94
2021/06/16 07:19:52;;;;;;;0.17;0.10;;;33.10;29.40;;;;;;5006433;28;20021;-94
2021/06/16 07:22:20;;;;;;;0.10;0.10;;;33.40;30.00;;;;;;5030663;28;20051;-94
2021/06/16 07:24:46;;;;;;;0.08;0.08;;;34.10;27.30;;;;;;5028985;28;20047;-93
2021/06/16 07:27:13;;;;;;;0.10;0.10;;;33.60;26.40;;;;;;5028886;28;20025;-93
2021/06/16 07:29:39;;;;;;;0.05;0.05;;;35.10;33.70;;;;;;5031764;28;20446;-93
2021/06/16 07:32:05;;;;;;;0.47;0.35;;;33.90;20.40;;;;;;5018697;28;20022;-92
2021/06/16 07:34:31;;;;;;;0.00;0.00;;;36.10;21.70;;;;;;5024907;28;20032;-93
2021/06/16 07:36:57;;;;;;;0.10;0.10;;;36.50;19.90;;;;;;5027903;28;20030;-93
2021/06/16 07:39:23;;;;;;;0.05;0.05;;;37.90;15.80;;;;;;5028202;28;20036;-94
2021/06/16 07:41:49;;;;;;;0.00;0.00;;;38.10;12.00;;;;;;5027581;28;20626;-93
2021/06/16 07:44:14;;;;;;;0.10;0.10;;;38.60;11.80;;;;;;5038626;28;20025;-94
2021/06/16 07:46:40;;;;;;;0.00;0.00;;;37.40;13.10;;;;;;5030282;28;20064;-93
2021/06/16 07:49:07;;;;;;;0.00;0.00;;;37.40;12.80;;;;;;5030344;28;20102;-94
2021/06/16 07:51:33;;;;;;;0.00;0.00;;;37.60;11.60;;;;;;5030296;28;20021;-94
2021/06/16 07:53:58;;;;;;;0.00;0.00;;;37.60;11.60;;;;;;5030529;28;20037;-93
2021/06/16 07:56:24;;;;;;;0.00;0.00;;;37.20;9.60;;;;;;5030472;28;20025;-93
2021/06/16 07:58:51;;;;;;;0.00;0.00;;;37.30;9.70;;;;;;5030313;28;20029;-94
2021/06/16 08:01:20;;;;;;;0.68;0.22;;;37.00;12.40;;;;;;5017626;28;20041;-93
2021/06/16 08:03:46;;;;;;;0.10;0.10;;;36.00;15.00;;;;;;5043832;28;20076;-94
2021/06/16 08:06:12;;;;;;;0.17;0.17;;;36.50;11.90;;;;;;5026642;28;20734;-94
2021/06/16 08:08:38;;;;;;;0.00;0.00;;;36.80;9.50;;;;;;5028072;28;20080;-93
2021/06/16 08:11:04;;;;;;;0.38;0.20;;;37.60;8.80;;;;;;5038771;28;20104;-94
2021/06/16 08:13:31;;;;;;;0.15;0.10;;;38.00;3.90;;;;;;5030056;28;20029;-93
2021/06/16 08:15:58;;;;;;;0.20;0.20;;;39.30;5.20;;;;;;5016321;28;20026;-93
2021/06/16 08:18:24;;;;;;;0.08;0.08;;;39.10;6.30;;;;;;5029894;28;20025;-93
2021/06/16 08:20:50;;;;;;;0.00;0.00;;;38.70;5.80;;;;;;5030498;28;20028;-94
2021/06/16 08:23:16;;;;;;;0.10;0.10;;;38.30;6.80;;;;;;5030179;28;20060;-94
2021/06/16 08:25:43;;;;;;;0.38;0.32;;;38.40;2.00;;;;;;5030431;28;20057;-93
2021/06/16 08:28:09;;;;;;;0.00;0.00;;;39.70;2.80;;;;;;5030825;28;20029;-94
2021/06/16 08:30:35;;;;;;;0.05;0.05;;;39.30;1.00;;;;;;5034294;28;20030;-93
2021/06/16 08:33:01;;;;;;;0.20;0.15;;;37.00;6.70;;;;;;5034030;28;20029;-93
2021/06/16 08:35:27;;;;;;;0.17;0.17;;;37.10;1.30;;;;;;5036426;28;20025;-93
2021/06/16 08:37:54;;;;;;;0.32;0.32;;;37.00;1.00;;;;;;5035092;28;20167;-94
2021/06/16 08:40:19;;;;;;;0.10;0.10;;;35.10;3.50;;;;;;5035421;28;20071;-95
2021/06/16 08:42:46;;;;;;;0.03;0.00;;;37.60;1.70;;;;;;5035953;28;20025;-94
2021/06/16 08:45:13;;;;;;;0.00;0.00;;;37.50;1.00;;;;;;5035039;28;20080;-94
2021/06/16 08:47:41;;;;;;;0.10;0.10;;;40.00;1.00;;;;;;5034946;28;20021;-94
2021/06/16 08:50:10;;;;;;;0.13;0.10;;;36.90;1.00;;;;;;5035689;28;20029;-94
2021/06/16 08:52:36;;;;;;;0.17;0.17;;;37.40;1.00;;;;;;5035444;28;20483;-94
2021/06/16 08:55:07;;;;;;;1.35;0.30;;;36.10;1.00;;;;;;5037027;28;20049;-94
2021/06/16 08:57:34;;;;;;;0.38;0.25;;;37.60;1.00;;;;;;5039787;28;20059;-94
2021/06/16 09:00:00;;;;;;;0.10;0.10;;;39.70;1.00;;;;;;5034610;28;20029;-93
2021/06/16 09:02:26;;;;;;;1.00;0.10;;;37.10;1.00;;;;;;5034653;28;20087;-93
2021/06/16 09:04:53;;;;;;;0.10;0.10;;;37.60;1.00;;;;;;5035074;28;20103;-93
2021/06/16 09:07:22;;;;;;;0.10;0.00;;;38.20;1.00;;;;;;5035100;28;20108;-93
2021/06/16 09:10:03;;;;;;;0.00;0.00;;;40.10;1.00;;;;;;5035142;28;20029;-94
2021/06/16 09:12:33;;;;;;;0.20;0.20;;;36.80;1.00;;;;;;5035193;28;20116;-95
2021/06/16 09:14:59;;;;;;;0.10;0.10;;;38.30;1.00;;;;;;5037121;28;20511;-95
2021/06/16 09:17:26;;;;;;;0.05;0.05;;;40.60;1.00;;;;;;5035235;28;20113;-95
2021/06/16 09:19:57;;;;;;;0.03;0.03;;;38.10;1.00;;;;;;5034886;28;20052;-95
2021/06/16 09:22:32;;;;;;;0.35;0.35;;;39.90;1.00;;;;;;5034763;28;20026;-94
2021/06/16 09:25:02;;;;;;;0.10;0.10;;;41.90;1.00;;;;;;5034995;28;20507;-95
2021/06/16 09:27:50;;;;;;;0.63;0.43;;;41.50;1.00;;;;;;5034147;28;20406;-94
2021/06/16 09:30:19;;;;;;;0.20;0.20;;;43.10;1.00;;;;;;5035005;28;20025;-95
2021/06/16 09:32:48;;;;;;;0.00;0.00;;;41.90;1.00;;;;;;5032312;28;20034;-94
2021/06/16 09:35:23;;;;;;;0.15;0.15;;;41.30;1.00;;;;;;5031136;28;20117;-95
2021/06/16 09:37:50;;;;;;;0.10;0.10;;;41.80;1.00;;;;;;5031223;28;20399;-95
2021/06/16 09:40:57;;;;;;;0.00;0.00;;;44.20;1.00;;;;;;5030210;28;20103;-95
2021/06/16 09:43:23;;;;;;;0.15;0.10;;;42.90;1.00;;;;;;5012196;28;20038;-94
2021/06/16 09:46:00;;;;;;;0.30;0.15;;;40.70;1.00;;;;;;5030509;28;20072;-94
2021/06/16 09:48:49;;;;;;;0.03;0.03;;;39.70;1.00;;;;;;5031897;28;20022;-94
2021/06/16 09:51:23;;;;;;;0.10;0.10;;;38.00;1.00;;;;;;5014765;28;20053;-95
2021/06/16 09:53:55;;;;;;;0.10;0.05;;;39.80;1.00;;;;;;5031971;28;20018;-95
2021/06/16 09:56:22;;;;;;;0.40;0.30;;;36.60;1.00;;;;;;5032088;28;20026;-94
2021/06/16 09:58:50;;;;;;;0.10;0.10;;;37.30;1.00;;;;;;5039035;28;20021;-95
2021/06/16 10:01:16;;;;;;;0.10;0.10;;;40.00;1.00;;;;;;5037488;28;20108;-95
2021/06/16 10:03:42;;;;;;;0.70;0.40;;;42.40;1.00;;;;;;5031248;28;20057;-93
2021/06/16 10:06:12;;;;;;;0.10;0.10;;;42.80;1.00;;;;;;5028856;28;20037;-94
2021/06/16 10:08:39;;;;;;;0.20;0.20;;;45.60;1.00;;;;;;5021545;28;20034;-95
2021/06/16 10:11:07;;;;;;;0.10;0.10;;;46.00;1.00;;;;;;5032936;28;20034;-94
2021/06/16 10:13:34;;;;;;;0.20;0.10;;;44.00;1.00;;;;;;5020237;28;20022;-94
2021/06/16 10:16:01;;;;;;;0.17;0.17;;;41.10;1.00;;;;;;5013382;28;20022;-94
2021/06/16 10:18:29;;;;;;;0.20;0.20;;;42.00;1.00;;;;;;5024180;28;20021;-94
2021/06/16 10:20:57;;;;;;;0.20;0.20;;;42.80;1.00;;;;;;5030565;28;20057;-93
2021/06/16 10:23:24;;;;;;;0.65;0.63;;;43.20;1.00;;;;;;5035671;28;20095;-93
2021/06/16 10:25:50;;;;;;;1.63;0.50;;;42.00;1.00;;;;;;5030608;28;20117;-93
2021/06/16 10:28:19;;;;;;;0.45;0.32;;;38.10;1.00;;;;;;5018817;28;20026;-92
2021/06/16 10:30:52;;;;;;;4.28;1.05;;;40.40;1.00;;;;;;5033135;28;20029;-92
2021/06/16 10:33:35;;;;;;;0.22;0.05;;;39.80;1.00;;;;;;5016999;28;20029;-91
2021/06/16 10:36:22;;;;;;;0.57;0.47;;;36.90;1.00;;;;;;5019907;28;20026;-91
2021/06/16 10:39:10;;;;;;;0.10;0.10;;;36.00;1.00;;;;;;5031824;28;20080;-92
2021/06/16 10:41:44;;;;;;;0.10;0.10;;;38.50;1.00;;;;;;5010678;28;20053;-92
2021/06/16 10:44:21;;;;;;;0.10;0.10;;;39.20;1.00;;;;;;5023002;28;20040;-91
2021/06/16 10:46:52;;;;;;;0.13;0.13;;;41.50;1.00;;;;;;5013278;28;20096;-92
2021/06/16 10:49:47;;;;;;;0.13;0.13;;;42.80;1.00;;;;;;5024461;28;20066;-92
2021/06/16 10:52:14;;;;;;;;;;;40.10;1.00;;;;;;5018294;28;20037;-93
2021/06/16 10:54:59;;;;;;;0.85;0.40;;;38.90;1.00;;;;;;5025934;28;19928;-92
2021/06/16 10:57:26;;;;;;;0.35;0.35;;;41.70;1.00;;;;;;5017640;28;20062;-90
2021/06/16 10:59:53;;;;;;;0.20;0.20;;;39.90;1.00;;;;;;5020627;28;20029;-90
2021/06/16 11:02:24;;;;;;;0.30;0.30;;;40.20;1.00;;;;;;5024372;28;20561;-90
2021/06/16 11:04:51;;;;;;;0.35;0.35;;;42.50;1.00;;;;;;5020337;28;20053;-89
2021/06/16 11:07:32;;;;;;;0.20;0.20;;;44.30;1.00;;;;;;5036656;28;20044;-89
2021/06/16 11:10:03;;;;;;;0.30;0.25;;;42.40;1.00;;;;;;5013214;28;20200;-91
2021/06/16 11:12:37;;;;;;;0.20;0.20;;;40.60;1.00;;;;;;5024735;28;20044;-90
2021/06/16 11:15:10;;;;;;;0.25;0.13;;;39.90;1.00;;;;;;5015393;28;20026;-91
2021/06/16 11:17:36;;;;;;;0.45;0.45;;;37.20;1.00;;;;;;5007999;28;20029;-91
2021/06/16 11:20:06;;;;;;;;;;;36.10;1.00;;;;;;5024686;28;20099;-90
2021/06/16 11:22:35;;;;;;;0.47;0.20;;;40.10;1.00;;;;;;5025778;28;19936;-91
2021/06/16 11:25:24;;;;;;;0.32;0.20;;;42.40;1.00;;;;;;5027489;28;20021;-90
2021/06/16 11:27:52;;;;;;;1.65;0.73;;;42.70;1.00;;;;;;5024327;28;20088;-91
2021/06/16 11:30:30;;;;;;;0.45;0.38;;;38.40;1.00;;;;;;5018936;28;20026;-90
2021/06/16 11:33:15;;;;;;;0.22;0.20;;;37.80;1.00;;;;;;5012858;28;20031;-91
2021/06/16 11:35:50;;;;;;;0.50;0.50;;;34.90;1.00;;;;;;5027491;28;20031;-91
2021/06/16 11:38:19;;;;;;;0.10;0.10;;;33.80;1.00;;;;;;5028016;28;20115;-90
2021/06/16 11:41:16;;;;;;;0.30;0.30;;;33.80;1.00;;;;;;5029006;28;20108;-90
2021/06/16 11:44:00;;;;;;;1.67;0.45;;;32.80;1.00;;;;;;5027992;28;20033;-90
2021/06/16 11:46:35;;;;;;;0.25;0.25;;;32.30;1.00;;;;;;5029573;28;20025;-92
2021/06/16 11:49:16;;;;;;;;;;;32.50;1.00;;;;;;5028640;28;20022;-91
2021/06/16 11:51:56;;;;;;;0.10;0.10;;;32.20;1.00;;;;;;5028170;28;20393;-91
2021/06/16 11:54:29;;;;;;;0.10;0.10;;;32.40;1.00;;;;;;5028294;28;20116;-91
2021/06/16 11:57:09;;;;;;;0.32;0.25;;;34.70;1.00;;;;;;5029022;28;20177;-91
2021/06/16 11:59:50;;;;;;;0.10;0.10;;;35.10;1.00;;;;;;5028627;28;20026;-91
2021/06/16 12:02:27;;;;;;;4.07;0.20;;;33.70;1.00;;;;;;5045208;28;20109;-91
2021/06/16 12:05:09;;;;;;;0.22;0.22;;;32.60;1.00;;;;;;5047000;28;20060;-91
2021/06/16 12:07:48;;;;;;;0.20;0.20;;;32.80;1.00;;;;;;5048902;28;20045;-91
2021/06/16 12:10:25;;;;;;;1.05;0.63;;;33.50;1.00;;;;;;5048817;28;20025;-91
2021/06/16 12:12:56;;;;;;;0.38;0.35;;;35.30;1.00;;;;;;5048779;28;20028;-91
2021/06/16 12:15:30;;;;;;;0.70;0.40;;;35.20;1.00;;;;;;5049202;28;20119;-91
2021/06/16 12:18:02;;;;;;;0.30;0.30;;;34.30;1.00;;;;;;5048822;28;20033;-91
2021/06/16 12:20:34;;;;;;;0.43;0.25;;;34.20;1.00;;;;;;5048790;28;20029;-91
2021/06/16 12:23:02;;;;;;;0.13;0.13;;;33.60;1.00;;;;;;5033439;28;20028;-91
2021/06/16 12:25:34;;;;;;;0.10;0.10;;;34.30;1.00;;;;;;5048535;28;20029;-90
2021/06/16 12:28:01;;;;;;;1.50;0.47;;;32.90;1.00;;;;;;5048438;28;20439;-91
2021/06/16 12:30:30;;;;;;;1.02;0.38;;;33.20;1.00;;;;;;5048921;28;20549;-91
2021/06/16 12:33:18;;;;;;;0.52;0.52;;;32.00;1.00;;;;;;5048742;28;20041;-91
2021/06/16 12:35:57;;;;;;;0.57;0.55;;;31.80;1.00;;;;;;5048819;28;20103;-91
2021/06/16 12:38:44;;;;;;;0.60;0.32;;;32.00;1.00;;;;;;5048298;28;20025;-90
2021/06/16 12:41:25;;;;;;;0.40;0.30;;;32.00;1.00;;;;;;5032822;28;20108;-91
2021/06/16 12:43:52;;;;;;;0.30;0.30;;;31.80;1.00;;;;;;5031087;28;20037;-91
2021/06/16 12:46:18;;;;;;;0.13;0.13;;;32.40;1.00;;;;;;5033047;28;20048;-91
2021/06/16 12:48:44;;;;;;;0.77;0.35;;;32.50;1.00;;;;;;5031549;28;20029;-90
2021/06/16 12:51:10;;;;;;;0.32;0.17;;;32.80;1.00;;;;;;5047629;28;20030;-91
2021/06/16 12:53:38;;;;;;;1.55;0.63;;;33.20;1.00;;;;;;5031344;28;20804;-91
2021/06/16 12:56:05;;;;;;;0.17;0.10;;;32.70;1.00;;;;;;5034748;28;20065;-91
2021/06/16 12:58:31;;;;;;;0.17;0.17;;;32.50;1.00;;;;;;5015967;28;20060;-91
2021/06/16 13:00:58;;;;;;;;;;;32.20;1.00;;;;;;5030317;28;20587;-91
2021/06/16 13:03:26;;;;;;;0.22;0.22;;;32.50;1.00;;;;;;5029868;28;20417;-91